Time;durP1;ratioP1;P1;durP2;ratioP2;P2;SDS_P1;SDS_P2;PMS_P1;PMS_P2;Temp;Humidity;BMP_temperature;BMP_pressure;BME280_temperature;BME280_humidity;BME280_pressure;Samples;Min_cycle;Max_cycle;Signal;HPM_P1;HPM_P2
2023/01/18 00:01:38;;;;;;;23.77;20.30;;;;;;;-1.26;84.85;99015.25;5093618;28;20051;-61
2023/01/18 00:04:04;;;;;;;22.93;20.43;;;;;;;-1.33;85.71;99019.03;5097159;28;20066;-63
2023/01/18 00:06:29;;;;;;;26.03;20.90;;;;;;;-1.35;85.31;99017.38;5093230;28;20477;-62
2023/01/18 00:08:58;;;;;;;24.17;19.83;;;;;;;-1.33;85.48;99016.41;5094571;28;20036;-61
2023/01/18 00:11:24;;;;;;;23.93;20.73;;;;;;;-1.40;85.90;99008.03;5101896;28;20044;-63
2023/01/18 00:13:49;;;;;;;23.10;20.23;;;;;;;-1.38;86.24;99013.19;5096464;28;20035;-62
2023/01/18 00:16:20;;;;;;;23.33;20.83;;;;;;;-1.32;85.36;99012.03;5096964;28;20085;-62
2023/01/18 00:18:54;;;;;;;24.83;20.47;;;;;;;-1.39;86.25;99012.31;5114740;28;20027;-63
2023/01/18 00:21:23;;;;;;;22.93;20.53;;;;;;;-1.44;85.66;99018.63;5113383;28;20027;-62
2023/01/18 00:23:53;;;;;;;23.95;20.73;;;;;;;-1.32;86.27;99014.66;5113220;28;20055;-62
2023/01/18 00:26:18;;;;;;;26.85;20.83;;;;;;;-1.43;86.62;99021.19;5115101;28;20099;-61
2023/01/18 00:28:45;;;;;;;25.70;21.00;;;;;;;-1.34;85.58;99019.94;5096780;28;20568;-63
2023/01/18 00:31:16;;;;;;;24.87;20.43;;;;;;;-1.39;86.96;99025.34;5106877;28;20030;-63
2023/01/18 00:33:43;;;;;;;21.50;19.23;;;;;;;-1.52;86.38;99033.78;5102431;28;20435;-62
2023/01/18 00:36:10;;;;;;;24.77;19.50;;;;;;;-1.43;86.15;99026.41;5114668;28;20364;-63
2023/01/18 00:38:35;;;;;;;25.50;20.47;;;;;;;-1.42;86.88;99022.03;5114127;28;20110;-62
2023/01/18 00:41:01;;;;;;;24.23;20.00;;;;;;;-1.56;86.09;99035.66;5092617;28;20139;-62
2023/01/18 00:43:41;;;;;;;22.63;19.53;;;;;;;-1.49;86.64;99031.88;5075734;28;20537;-62
2023/01/18 00:46:15;;;;;;;24.90;20.30;;;;;;;-1.55;86.38;99036.53;5093124;28;20036;-63
2023/01/18 00:48:42;;;;;;;26.37;20.87;;;;;;;-1.63;86.94;99024.66;5093705;28;20440;-63
2023/01/18 00:51:10;;;;;;;24.87;19.93;;;;;;;-1.60;86.68;99027.13;5103333;28;20504;-62
2023/01/18 00:53:39;;;;;;;24.00;19.63;;;;;;;-1.66;86.79;99032.59;5104059;28;20461;-62
2023/01/18 00:56:10;;;;;;;21.17;18.97;;;;;;;-1.59;87.42;99035.78;5090274;28;20122;-61
2023/01/18 00:58:36;;;;;;;27.73;18.87;;;;;;;-1.58;86.88;99037.50;5101691;28;20374;-62
2023/01/18 01:01:02;;;;;;;23.23;19.57;;;;;;;-1.64;87.14;99038.59;5094645;28;20032;-62
2023/01/18 01:06:42;;;;;;;23.33;19.07;;;;;;;-1.71;87.46;99023.28;5111584;28;20024;-61
2023/01/18 01:09:02;;;;;;;23.73;19.63;;;;;;;-1.61;87.24;99037.63;5101383;28;20394;-62
2023/01/18 01:11:28;;;;;;;23.27;18.93;;;;;;;-1.73;87.15;99025.13;5089073;28;20032;-62
2023/01/18 01:27:34;;;;;;;21.57;18.67;;;;;;;-1.74;87.57;99041.66;5078370;28;20448;-62
2023/01/18 01:30:02;;;;;;;22.17;17.70;;;;;;;-1.73;86.70;99053.78;5095040;28;20474;-62
2023/01/18 01:32:28;;;;;;;20.63;18.43;;;;;;;-1.76;86.87;99052.16;5095506;28;20023;-62
2023/01/18 01:34:53;;;;;;;20.83;17.50;;;;;;;-1.75;87.42;99058.22;5078122;28;20036;-62
2023/01/18 01:37:19;;;;;;;20.07;18.07;;;;;;;-1.79;87.34;99059.22;5078485;28;20027;-62
2023/01/18 01:39:45;;;;;;;22.87;18.77;;;;;;;-1.84;87.90;99059.44;5094505;28;20035;-62
2023/01/18 01:42:13;;;;;;;21.37;19.03;;;;;;;-1.75;87.49;99069.47;5095263;28;20406;-62
2023/01/18 01:44:44;;;;;;;20.57;17.70;;;;;;;-1.83;86.95;99067.19;5091792;28;20084;-62
2023/01/18 01:47:31;;;;;;;21.27;18.57;;;;;;;-1.86;87.11;99069.06;5092573;28;20024;-62
2023/01/18 01:50:07;;;;;;;19.60;16.63;;;;;;;-1.86;86.73;99080.31;5094325;28;20030;-62
2023/01/18 01:52:36;;;;;;;20.67;18.60;;;;;;;-1.88;87.48;99073.50;5113250;28;20024;-62
2023/01/18 01:55:05;;;;;;;28.35;20.00;;;;;;;-1.92;87.96;99077.97;5094336;28;20363;-63
2023/01/18 01:57:36;;;;;;;21.57;17.47;;;;;;;-1.90;87.27;99078.78;5112777;28;20079;-61
2023/01/18 02:00:08;;;;;;;20.27;18.27;;;;;;;-2.00;87.72;99085.28;5111299;28;20034;-62
2023/01/18 02:02:35;;;;;;;21.87;18.23;;;;;;;-2.07;88.03;99082.03;5112774;28;20482;-62
2023/01/18 02:05:05;;;;;;;23.70;18.47;;;;;;;-1.99;87.86;99079.16;5112747;28;20038;-62
2023/01/18 02:07:31;;;;;;;20.38;18.02;;;;;;;-2.01;87.47;99069.69;5094358;28;20035;-62
2023/01/18 02:09:58;;;;;;;23.30;17.27;;;;;;;-1.98;87.41;99074.78;5103957;28;20040;-61
2023/01/18 02:12:25;;;;;;;21.97;17.77;;;;;;;-2.04;87.39;99075.88;5109852;28;20027;-62
2023/01/18 02:14:51;;;;;;;20.63;18.00;;;;;;;-2.06;87.57;99070.75;5100973;28;20016;-62
2023/01/18 02:17:23;;;;;;;22.67;18.57;;;;;;;-2.10;87.36;99076.13;5112594;28;20019;-61
2023/01/18 02:20:18;;;;;;;24.93;19.07;;;;;;;-2.08;87.71;99082.97;5097773;28;20490;-62
2023/01/18 02:22:43;;;;;;;20.40;18.20;;;;;;;-2.10;88.67;99071.75;5106156;28;20027;-62
2023/01/18 02:25:25;;;;;;;21.83;19.53;;;;;;;-2.11;88.30;99070.06;5104616;28;20383;-62
2023/01/18 02:28:21;;;;;;;24.10;19.10;;;;;;;-2.04;88.63;99072.44;5083395;28;20081;-62
2023/01/18 02:31:25;;;;;;;22.07;18.47;;;;;;;-2.01;88.15;99067.94;5108370;28;20028;-62
2023/01/18 02:34:05;;;;;;;27.63;19.43;;;;;;;-2.12;88.01;99065.78;5059893;28;20051;-62
2023/01/18 02:36:41;;;;;;;22.57;19.53;;;;;;;-2.07;88.48;99076.84;5112595;28;20038;-62
2023/01/18 02:39:22;;;;;;;22.43;19.37;;;;;;;-2.11;88.11;99074.44;5111486;28;20122;-62
2023/01/18 02:47:31;;;;;;;25.40;18.27;;;;;;;-2.08;88.72;99082.97;5092174;28;20093;-62
2023/01/18 02:49:57;;;;;;;24.43;19.50;;;;;;;-2.16;88.12;99090.22;5103520;28;20027;-62
2023/01/18 02:52:40;;;;;;;24.37;19.80;;;;;;;-2.11;88.46;99088.31;5110513;28;20477;-62
2023/01/18 02:55:20;;;;;;;22.17;19.77;;;;;;;-2.11;88.84;99092.66;5076565;28;20027;-62
2023/01/18 02:57:46;;;;;;;24.70;16.17;;;;;;;-2.10;88.43;99094.34;5102269;28;20048;-62
2023/01/18 03:00:16;;;;;;;22.73;18.13;;;;;;;-2.22;88.57;99081.81;5092448;28;20062;-62
2023/01/18 03:02:42;;;;;;;20.85;18.55;;;;;;;-2.13;88.02;99099.69;5090587;28;20395;-61
2023/01/18 03:05:10;;;;;;;21.77;18.80;;;;;;;-2.14;87.70;99091.03;5091167;28;20024;-62
2023/01/18 03:07:51;;;;;;;23.07;20.57;;;;;;;-2.13;88.89;99095.31;5090477;28;20107;-62
2023/01/18 03:10:20;;;;;;;22.00;19.57;;;;;;;-2.32;87.89;99092.59;5107778;28;20099;-63
2023/01/18 03:13:00;;;;;;;25.37;20.10;;;;;;;-2.26;88.40;99096.72;5112138;28;20030;-63
2023/01/18 03:16:07;;;;;;;24.17;18.57;;;;;;;-2.38;88.56;99095.44;5111289;28;20032;-62
2023/01/18 03:18:38;;;;;;;20.80;18.63;;;;;;;-2.25;88.56;99088.00;4993057;28;20130;-61
2023/01/18 03:21:06;;;;;;;23.60;19.53;;;;;;;-2.44;88.12;99087.88;5092595;28;20493;-62
2023/01/18 03:23:37;;;;;;;22.30;19.93;;;;;;;-2.29;89.04;99097.69;5111453;28;20115;-61
2023/01/18 03:26:05;;;;;;;23.67;19.70;;;;;;;-2.32;89.08;99096.97;5093791;28;20020;-62
2023/01/18 03:34:32;;;;;;;21.60;18.30;;;;;;;-2.36;88.35;99101.41;5105371;28;20130;-62
2023/01/18 03:37:02;;;;;;;22.23;19.40;;;;;;;-2.36;88.35;99101.41;5093510;28;20547;-62
2023/01/18 03:39:33;;;;;;;24.00;20.10;;;;;;;-2.45;88.64;99103.53;5103521;28;20020;-62
2023/01/18 03:42:06;;;;;;;22.87;19.07;;;;;;;-2.42;89.44;99106.88;5091094;28;20019;-62
2023/01/18 03:44:41;;;;;;;23.03;20.67;;;;;;;-2.51;89.83;99102.84;5091257;28;20032;-61
2023/01/18 03:47:09;;;;;;;23.87;20.37;;;;;;;-2.41;88.60;99113.78;5091132;28;20027;-62
2023/01/18 03:49:35;;;;;;;23.77;20.13;;;;;;;-2.46;88.65;99104.44;5107393;28;20118;-62
2023/01/18 03:52:14;;;;;;;25.73;20.63;;;;;;;-2.43;89.24;99104.34;5109974;28;20459;-62
2023/01/18 03:54:54;;;;;;;26.13;20.83;;;;;;;-2.36;89.20;99113.59;5081388;28;20093;-62
2023/01/18 03:57:27;;;;;;;22.47;20.03;;;;;;;-2.34;89.14;99135.22;5094153;28;20125;-63
2023/01/18 04:00:00;;;;;;;23.97;20.37;;;;;;;-2.38;89.34;99137.09;5092829;28;20059;-61
2023/01/18 04:02:26;;;;;;;25.47;20.10;;;;;;;-2.46;88.41;99136.53;5110791;28;20028;-62
2023/01/18 04:04:56;;;;;;;25.80;20.90;;;;;;;-2.51;89.52;99141.91;5110709;28;20031;-62
2023/01/18 04:07:24;;;;;;;25.90;20.42;;;;;;;-2.50;88.77;99153.16;5093107;28;20039;-63
2023/01/18 04:09:49;;;;;;;26.77;21.17;;;;;;;-2.43;89.30;99148.59;5088957;28;20032;-61
2023/01/18 04:12:15;;;;;;;24.17;20.40;;;;;;;-2.44;89.45;99152.06;5091931;28;20043;-62
2023/01/18 04:14:41;;;;;;;26.00;21.17;;;;;;;-2.55;89.32;99160.28;5091216;28;20035;-62
2023/01/18 04:17:07;;;;;;;23.97;21.20;;;;;;;-2.49;89.41;99152.25;5113522;28;20031;-62
2023/01/18 04:19:32;;;;;;;25.53;20.73;;;;;;;-2.60;89.36;99157.00;5096217;28;20064;-62
2023/01/18 04:21:58;;;;;;;25.37;21.13;;;;;;;-2.59;89.90;99154.38;5096190;28;20027;-63
2023/01/18 04:24:23;;;;;;;23.07;20.07;;;;;;;-2.62;89.39;99157.09;5095114;28;20382;-62
2023/01/18 04:26:49;;;;;;;26.93;21.47;;;;;;;-2.61;89.18;99161.38;5095657;28;20042;-63
2023/01/18 04:29:15;;;;;;;25.83;21.00;;;;;;;-2.61;90.33;99157.94;5108468;28;20023;-62
2023/01/18 04:31:43;;;;;;;24.13;20.77;;;;;;;-2.64;89.94;99165.84;5114111;28;20119;-62
2023/01/18 04:34:09;;;;;;;25.00;20.20;;;;;;;-2.65;90.04;99166.72;5078614;28;20462;-62
2023/01/18 04:36:35;;;;;;;27.67;22.37;;;;;;;-2.67;90.10;99164.19;5095541;28;20038;-63
2023/01/18 04:39:01;;;;;;;25.27;21.27;;;;;;;-2.68;89.98;99164.25;5092821;28;20081;-63
2023/01/18 04:41:27;;;;;;;29.70;21.43;;;;;;;-2.59;90.59;99164.78;5079887;28;20024;-63
2023/01/18 04:43:53;;;;;;;26.60;21.93;;;;;;;-2.58;91.08;99165.63;5075638;28;20085;-63
2023/01/18 04:46:21;;;;;;;28.57;21.50;;;;;;;-2.63;90.97;99160.56;5101586;28;20031;-62
2023/01/18 04:48:50;;;;;;;29.17;22.23;;;;;;;-2.67;91.05;99159.00;5099265;28;20039;-63
2023/01/18 04:51:16;;;;;;;27.92;21.67;;;;;;;-2.59;90.49;99172.59;5095597;28;20035;-62
2023/01/18 04:53:43;;;;;;;30.97;21.37;;;;;;;-2.64;90.48;99176.25;5112633;28;20027;-62
2023/01/18 04:56:09;;;;;;;29.67;21.67;;;;;;;-2.64;90.57;99176.25;5112685;28;20031;-61
2023/01/18 04:58:35;;;;;;;27.47;22.50;;;;;;;-2.76;90.23;99170.59;5094282;28;20028;-62
2023/01/18 05:01:05;;;;;;;25.17;21.03;;;;;;;-2.75;90.38;99172.25;5080942;28;20153;-61
2023/01/18 05:03:36;;;;;;;26.83;21.25;;;;;;;-2.71;90.45;99179.97;5093807;28;20031;-61
2023/01/18 05:06:12;;;;;;;26.47;22.67;;;;;;;-2.77;90.55;99183.63;5095732;28;20034;-62
2023/01/18 05:08:41;;;;;;;25.87;21.27;;;;;;;-2.79;89.77;99191.50;5095025;28;20047;-62
2023/01/18 05:11:25;;;;;;;28.03;22.40;;;;;;;-2.70;91.34;99194.69;5088203;28;20032;-62
2023/01/18 05:13:51;;;;;;;26.30;22.77;;;;;;;-2.66;91.07;99193.66;5055184;28;20044;-62
2023/01/18 05:16:19;;;;;;;31.47;23.10;;;;;;;-2.71;91.02;99199.00;5087809;28;20028;-62
2023/01/18 05:18:45;;;;;;;28.30;22.57;;;;;;;-2.69;91.31;99197.22;5097292;28;20055;-62
2023/01/18 05:21:11;;;;;;;27.97;23.43;;;;;;;-2.66;91.62;99196.25;5077856;28;20490;-61
2023/01/18 05:23:40;;;;;;;31.70;23.53;;;;;;;-2.63;92.27;99197.00;5111713;28;20498;-62
2023/01/18 05:26:13;;;;;;;28.60;23.70;;;;;;;-2.62;91.80;99206.53;5112862;28;20109;-62
2023/01/18 05:28:42;;;;;;;32.47;24.30;;;;;;;-2.64;91.76;99202.28;5111460;28;20023;-62
2023/01/18 05:31:08;;;;;;;29.88;24.73;;;;;;;-2.63;92.04;99210.00;5091821;28;20024;-62
2023/01/18 05:33:36;;;;;;;31.13;25.37;;;;;;;-2.64;91.71;99213.53;5095419;28;20024;-62
2023/01/18 05:36:02;;;;;;;28.00;24.10;;;;;;;-2.68;92.32;99208.47;5079209;28;20031;-62
2023/01/18 05:38:28;;;;;;;31.70;25.43;;;;;;;-2.65;92.24;99216.16;5111914;28;20031;-62
2023/01/18 05:40:53;;;;;;;28.00;25.03;;;;;;;-2.67;92.64;99211.03;5095336;28;20034;-62
2023/01/18 05:43:24;;;;;;;33.43;25.50;;;;;;;-2.70;92.58;99215.50;5113246;28;20111;-62
2023/01/18 05:45:49;;;;;;;29.60;24.73;;;;;;;-2.65;92.34;99219.59;5113318;28;20055;-62
2023/01/18 05:48:15;;;;;;;31.40;25.33;;;;;;;-2.63;92.92;99223.00;5094154;28;20066;-62
2023/01/18 05:50:43;;;;;;;28.83;25.83;;;;;;;-2.62;92.62;99219.53;5112860;28;20435;-61
2023/01/18 05:53:08;;;;;;;33.93;24.97;;;;;;;-2.60;92.43;99228.13;5094500;28;20050;-62
2023/01/18 05:55:34;;;;;;;33.50;26.60;;;;;;;-2.63;92.50;99233.44;5094332;28;20470;-62
2023/01/18 05:58:00;;;;;;;32.63;26.80;;;;;;;-2.65;92.34;99222.22;5112521;28;20051;-62
2023/01/18 06:00:26;;;;;;;31.77;25.63;;;;;;;-2.62;92.73;99236.88;5112561;28;20372;-62
2023/01/18 06:02:52;;;;;;;28.87;25.00;;;;;;;-2.61;92.54;99238.59;5113057;28;20034;-62
2023/01/18 06:05:19;;;;;;;32.57;25.20;;;;;;;-2.56;92.38;99236.66;5112299;28;20024;-63
2023/01/18 06:07:46;;;;;;;30.83;26.27;;;;;;;-2.63;92.76;99235.19;5094581;28;20385;-62
2023/01/18 06:10:12;;;;;;;33.17;25.80;;;;;;;-2.69;92.45;99225.00;5112006;28;20039;-62
2023/01/18 06:12:41;;;;;;;31.73;26.90;;;;;;;-2.60;92.77;99248.94;5112992;28;20042;-62
2023/01/18 06:15:07;;;;;;;30.97;25.70;;;;;;;-2.64;93.13;99247.34;5106354;28;20076;-62
2023/01/18 06:17:34;;;;;;;34.93;26.63;;;;;;;-2.69;92.60;99244.06;5074431;28;20510;-62
2023/01/18 06:19:59;;;;;;;32.17;25.57;;;;;;;-2.64;93.01;99259.53;5098796;28;20066;-62
2023/01/18 06:22:25;;;;;;;29.47;26.27;;;;;;;-2.65;92.77;99263.84;5111655;28;20447;-62
2023/01/18 06:24:50;;;;;;;29.97;25.17;;;;;;;-2.62;92.70;99268.09;5112230;28;20035;-62
2023/01/18 06:27:18;;;;;;;30.07;26.37;;;;;;;-2.66;92.97;99263.91;5112876;28;20119;-62
2023/01/18 06:29:46;;;;;;;33.73;25.30;;;;;;;-2.60;93.27;99277.56;5112328;28;20065;-63
2023/01/18 06:32:12;;;;;;;32.43;25.77;;;;;;;-2.65;93.21;99276.00;5111274;28;20114;-62
2023/01/18 06:34:37;;;;;;;33.63;27.43;;;;;;;-2.67;93.20;99283.88;5111405;28;20110;-62
2023/01/18 06:37:03;;;;;;;29.13;25.03;;;;;;;-2.66;93.03;99282.97;5103211;28;20382;-62
2023/01/18 06:39:31;;;;;;;30.70;24.90;;;;;;;-2.72;93.35;99280.59;5091816;28;20483;-62
2023/01/18 06:41:56;;;;;;;32.33;27.10;;;;;;;-2.71;93.37;99277.06;5099312;28;20035;-62
2023/01/18 06:44:24;;;;;;;31.63;26.57;;;;;;;-2.71;93.27;99281.44;5111697;28;20036;-62
2023/01/18 06:46:51;;;;;;;31.17;25.87;;;;;;;-2.71;93.28;99282.28;5112049;28;20398;-63
2023/01/18 06:49:17;;;;;;;30.50;25.27;;;;;;;-2.69;93.88;99285.69;5091619;28;20035;-63
2023/01/18 06:51:42;;;;;;;29.90;26.47;;;;;;;-2.72;93.58;99298.78;5100931;28;20031;-62
2023/01/18 06:54:09;;;;;;;32.43;26.07;;;;;;;-2.71;93.31;99307.44;5111399;28;20494;-62
2023/01/18 06:56:35;;;;;;;33.43;26.67;;;;;;;-2.73;93.36;99298.88;5110796;28;20051;-61
2023/01/18 06:59:00;;;;;;;35.47;26.67;;;;;;;-2.73;93.26;99304.91;5109955;28;20031;-62
2023/01/18 07:01:26;;;;;;;30.40;25.67;;;;;;;-2.71;93.48;99312.66;5083965;28;20024;-62
2023/01/18 07:03:52;;;;;;;35.03;25.37;;;;;;;-2.75;93.36;99317.97;5093591;28;20028;-62
2023/01/18 07:06:18;;;;;;;33.07;27.37;;;;;;;-2.79;93.40;99318.97;5111691;28;20027;-63
2023/01/18 07:08:46;;;;;;;33.23;26.23;;;;;;;-2.77;93.47;99321.50;5093337;28;20038;-62
2023/01/18 07:11:13;;;;;;;32.77;25.30;;;;;;;-2.78;93.63;99332.81;5088095;28;20082;-62
2023/01/18 07:13:45;;;;;;;34.60;26.13;;;;;;;-2.79;93.75;99329.38;5104071;28;20032;-62
2023/01/18 07:16:16;;;;;;;28.93;25.37;;;;;;;-2.86;93.98;99321.81;5097513;28;20024;-61
2023/01/18 07:18:47;;;;;;;31.60;26.17;;;;;;;-2.84;93.83;99317.41;5073540;28;20032;-62
2023/01/18 07:21:13;;;;;;;;;;;;;;;-2.66;93.04;99336.78;5073914;28;20022;-62
2023/01/18 07:23:40;;;;;;;32.53;23.37;;;;;;;-2.72;93.53;99331.78;5103300;28;20381;-62
2023/01/18 07:26:10;;;;;;;29.63;26.43;;;;;;;-2.75;93.76;99335.31;5100418;28;20085;-62
2023/01/18 07:28:36;;;;;;;31.80;26.47;;;;;;;-2.75;93.77;99346.56;5075832;28;20067;-63
2023/01/18 07:31:04;;;;;;;30.50;25.90;;;;;;;-2.73;94.18;99354.34;5108683;28;20039;-62
2023/01/18 07:33:30;;;;;;;33.73;24.67;;;;;;;-2.82;93.80;99334.69;5110939;28;20053;-62
2023/01/18 07:35:56;;;;;;;28.90;25.03;;;;;;;-2.82;94.15;99333.84;5090465;28;20024;-62
2023/01/18 07:38:23;;;;;;;30.27;25.47;;;;;;;-2.73;93.47;99350.91;5091222;28;20445;-62
2023/01/18 07:40:49;;;;;;;30.03;25.50;;;;;;;-2.72;93.61;99352.59;5091053;28;20024;-62
2023/01/18 07:43:16;;;;;;;34.70;25.47;;;;;;;-2.80;94.04;99350.22;5094804;28;20470;-61
2023/01/18 07:45:51;;;;;;;35.80;27.37;;;;;;;-2.79;93.80;99365.81;5096631;28;20039;-62
2023/01/18 07:48:16;;;;;;;31.30;27.00;;;;;;;-2.80;94.04;99358.88;5091076;28;20099;-62
2023/01/18 07:50:42;;;;;;;31.50;26.50;;;;;;;-2.78;93.97;99364.88;5075232;28;20382;-61
2023/01/18 07:53:08;;;;;;;32.37;26.17;;;;;;;-2.78;94.05;99364.88;5076851;28;20119;-61
2023/01/18 07:55:34;;;;;;;31.80;26.27;;;;;;;-2.74;94.01;99365.63;5080468;28;20115;-64
2023/01/18 07:58:00;;;;;;;31.63;25.07;;;;;;;-2.77;94.28;99361.38;5107410;28;20058;-63
2023/01/18 08:00:27;;;;;;;33.13;27.00;;;;;;;-2.78;94.21;99364.03;5108762;28;20130;-63
2023/01/18 08:02:53;;;;;;;28.20;24.63;;;;;;;-2.69;93.90;99373.31;5064792;28;20032;-64
2023/01/18 08:05:22;;;;;;;31.37;25.17;;;;;;;-2.63;93.91;99373.09;5093244;28;20032;-63
2023/01/18 08:07:52;;;;;;;30.83;24.90;;;;;;;-2.66;93.94;99384.44;5107159;28;20062;-63
2023/01/18 08:10:18;;;;;;;29.35;24.67;;;;;;;-2.69;94.28;99381.09;5112596;28;20431;-64
2023/01/18 08:12:44;;;;;;;30.93;24.47;;;;;;;-2.64;94.07;99390.47;5080006;28;20474;-63
2023/01/18 08:15:11;;;;;;;31.50;25.87;;;;;;;-2.64;94.15;99392.22;5097014;28;20046;-63
2023/01/18 08:17:37;;;;;;;28.10;24.93;;;;;;;-2.61;93.72;99395.56;5096421;28;20102;-64
2023/01/18 08:20:08;;;;;;;32.23;25.97;;;;;;;-2.63;93.88;99394.75;5111913;28;20039;-63
2023/01/18 08:22:34;;;;;;;30.73;25.37;;;;;;;-2.64;94.03;99389.63;5115057;28;20012;-63
2023/01/18 08:24:59;;;;;;;28.97;25.73;;;;;;;-2.58;94.30;99403.28;5113214;28;20020;-64
2023/01/18 08:27:26;;;;;;;28.63;24.53;;;;;;;-2.62;93.89;99391.28;5112441;28;20047;-64
2023/01/18 08:29:51;;;;;;;31.97;26.03;;;;;;;-2.51;93.74;99403.91;5107844;28;20023;-63
2023/01/18 08:32:17;;;;;;;32.33;23.83;;;;;;;-2.51;94.23;99396.94;5079219;28;20053;-63
2023/01/18 08:34:43;;;;;;;28.03;24.83;;;;;;;-2.49;93.95;99398.66;5112281;28;20072;-63
2023/01/18 08:37:10;;;;;;;28.30;25.20;;;;;;;-2.48;93.70;99410.78;5064715;28;20032;-63
2023/01/18 08:39:36;;;;;;;27.30;24.00;;;;;;;-2.47;94.17;99422.88;5071433;28;20111;-63
2023/01/18 08:42:02;;;;;;;26.93;23.77;;;;;;;-2.44;93.82;99414.97;5104899;28;20435;-64
2023/01/18 08:44:27;;;;;;;27.30;24.00;;;;;;;-2.42;93.97;99420.97;5076589;28;20123;-63
2023/01/18 08:46:53;;;;;;;26.00;23.20;;;;;;;-2.38;93.62;99425.16;5094530;28;20114;-64
2023/01/18 08:49:19;;;;;;;31.33;24.60;;;;;;;-2.34;94.07;99425.03;5095642;28;20080;-63
2023/01/18 08:51:45;;;;;;;33.23;24.87;;;;;;;-2.33;93.80;99434.53;5114169;28;20102;-63
2023/01/18 08:54:11;;;;;;;28.23;24.90;;;;;;;-2.29;93.30;99443.13;5093152;28;20046;-63
2023/01/18 08:56:38;;;;;;;28.50;25.30;;;;;;;-2.26;93.95;99440.41;5111774;28;20182;-63
2023/01/18 08:59:07;;;;;;;27.27;24.47;;;;;;;-2.21;93.35;99443.69;5082143;28;20028;-63
2023/01/18 09:01:33;;;;;;;28.53;24.27;;;;;;;-2.18;93.67;99446.19;5085670;28;20081;-63
2023/01/18 09:03:59;;;;;;;27.40;24.03;;;;;;;-2.14;93.31;99440.00;5095378;28;20047;-63
2023/01/18 09:06:28;;;;;;;30.07;23.70;;;;;;;-2.11;93.76;99447.69;5113201;28;20031;-63
2023/01/18 09:08:57;;;;;;;27.65;24.30;;;;;;;-2.01;93.47;99450.84;5112901;28;20406;-64
2023/01/18 09:11:22;;;;;;;27.87;24.50;;;;;;;-2.05;93.19;99446.66;5109699;28;20028;-63
2023/01/18 09:13:52;;;;;;;24.73;21.60;;;;;;;-2.06;93.42;99440.59;5110788;28;20088;-63
2023/01/18 09:16:18;;;;;;;;;;;;;;;-1.94;93.04;99449.72;5113407;28;20054;-63
2023/01/18 09:18:43;;;;;;;27.83;23.40;;;;;;;-1.95;93.60;99458.44;5113414;28;19935;-63
2023/01/18 09:21:11;;;;;;;28.80;23.63;;;;;;;-2.00;93.78;99446.47;5103658;28;20021;-63
2023/01/18 09:23:38;;;;;;;26.97;23.97;;;;;;;-1.93;93.73;99454.03;5088585;28;20114;-63
2023/01/18 09:26:09;;;;;;;27.60;23.90;;;;;;;-1.84;93.96;99463.28;5090328;28;20035;-63
2023/01/18 09:28:35;;;;;;;27.43;23.53;;;;;;;-1.78;94.05;99470.88;5093532;28;20410;-63
2023/01/18 09:31:05;;;;;;;25.97;23.07;;;;;;;-1.76;93.56;99458.66;5096758;28;20307;-63
2023/01/18 09:33:31;;;;;;;26.02;23.42;;;;;;;-1.66;93.18;99472.22;5094287;28;20471;-63
2023/01/18 09:36:03;;;;;;;29.47;24.17;;;;;;;-1.61;94.12;99473.75;5087495;28;20092;-64
2023/01/18 09:38:30;;;;;;;27.13;22.87;;;;;;;-1.49;92.86;99482.03;5078055;28;20787;-63
2023/01/18 09:40:57;;;;;;;26.93;23.57;;;;;;;-1.53;93.34;99467.41;5106410;28;20471;-63
2023/01/18 09:43:37;;;;;;;24.70;22.10;;;;;;;-1.28;93.00;99496.06;5093457;28;20462;-62
2023/01/18 09:46:03;;;;;;;23.43;21.10;;;;;;;-1.21;92.71;99497.53;5091299;28;20039;-63
2023/01/18 09:48:39;;;;;;;26.23;21.93;;;;;;;-1.06;92.26;99496.09;5105700;28;20089;-63
2023/01/18 09:51:11;;;;;;;23.07;20.67;;;;;;;-0.92;91.36;99501.66;5109008;28;20050;-63
2023/01/18 09:53:45;;;;;;;23.97;21.13;;;;;;;-0.77;91.65;99503.69;5103407;28;20084;-63
2023/01/18 09:56:18;;;;;;;23.00;20.70;;;;;;;-0.66;90.87;99505.88;5107833;28;20027;-63
2023/01/18 09:59:10;;;;;;;23.80;21.30;;;;;;;-0.56;89.88;99504.63;5107529;28;20114;-63
2023/01/18 10:01:37;;;;;;;25.07;20.33;;;;;;;-0.39;90.78;99509.16;5100015;28;20454;-63
2023/01/18 10:04:02;;;;;;;22.70;19.77;;;;;;;-0.24;89.96;99511.19;5093979;28;20028;-62
2023/01/18 10:06:44;;;;;;;22.37;18.90;;;;;;;-0.06;89.27;99508.72;5085232;28;20042;-63
2023/01/18 10:09:40;;;;;;;20.53;18.40;;;;;;;0.23;88.14;99505.72;5105916;28;20042;-64
2023/01/18 10:12:15;;;;;;;23.90;18.93;;;;;;;0.47;87.50;99507.34;5091705;28;20043;-63
2023/01/18 10:14:44;;;;;;;22.40;18.30;;;;;;;0.73;86.79;99516.69;5101405;28;20051;-63
2023/01/18 10:17:22;;;;;;;21.53;16.90;;;;;;;0.93;85.72;99518.44;5093879;28;20032;-63
2023/01/18 10:19:49;;;;;;;19.87;17.53;;;;;;;1.09;85.10;99522.91;5106620;28;20081;-64
2023/01/18 10:22:29;;;;;;;20.77;18.67;;;;;;;1.29;84.57;99523.75;5108410;28;20030;-63
2023/01/18 10:25:01;;;;;;;;;;;;;;;1.66;86.03;99511.53;5109942;28;20036;-63
2023/01/18 10:27:26;;;;;;;19.77;16.63;;;;;;;1.84;81.40;99525.53;5093187;28;19907;-63
2023/01/18 10:30:13;;;;;;;17.83;15.97;;;;;;;1.94;81.96;99511.03;5111930;28;20035;-63
2023/01/18 10:32:46;;;;;;;22.43;16.77;;;;;;;1.84;79.64;99523.75;5106891;28;20073;-62
2023/01/18 10:35:22;;;;;;;17.20;15.35;;;;;;;1.90;81.12;99531.31;5087014;28;20028;-62
2023/01/18 10:37:48;;;;;;;17.45;15.60;;;;;;;1.97;79.13;99527.47;5092011;28;20051;-63
2023/01/18 10:40:14;;;;;;;19.05;15.65;;;;;;;2.20;79.52;99522.84;5091606;28;20429;-63
2023/01/18 10:42:47;;;;;;;17.23;15.27;;;;;;;2.56;78.19;99527.16;5072479;28;20039;-62
2023/01/18 10:45:19;;;;;;;17.45;15.20;;;;;;;2.79;77.23;99531.22;5101440;28;20038;-63
2023/01/18 10:47:46;;;;;;;18.15;14.10;;;;;;;3.13;75.98;99525.88;5100210;28;20035;-62
2023/01/18 10:50:20;;;;;;;16.58;14.77;;;;;;;3.57;75.25;99519.13;5105528;28;20409;-63
2023/01/18 10:52:45;;;;;;;15.52;12.70;;;;;;;4.08;72.74;99523.19;5103823;28;20114;-64
2023/01/18 10:55:18;;;;;;;15.45;12.38;;;;;;;4.35;71.24;99527.78;5110915;28;20103;-64
2023/01/18 10:57:50;;;;;;;15.82;12.38;;;;;;;4.74;71.38;99531.66;5100245;28;20154;-64
2023/01/18 11:00:22;;;;;;;17.42;12.10;;;;;;;5.08;69.59;99526.94;5086744;28;20030;-64
2023/01/18 11:02:50;;;;;;;17.48;11.70;;;;;;;5.18;67.68;99528.09;5106337;28;20024;-64
2023/01/18 11:05:29;;;;;;;13.95;10.77;;;;;;;5.32;66.22;99532.47;5110826;28;20479;-63
2023/01/18 11:08:10;;;;;;;12.80;10.98;;;;;;;5.69;68.36;99534.47;5091771;28;20149;-63
2023/01/18 11:10:37;;;;;;;14.75;10.98;;;;;;;5.74;64.71;99531.56;5080899;28;20126;-64
2023/01/18 11:13:03;;;;;;;12.15;10.60;;;;;;;6.08;64.59;99538.16;5111702;28;20031;-63
2023/01/18 11:15:29;;;;;;;14.32;10.25;;;;;;;6.31;64.12;99544.56;5112035;28;20027;-64
2023/01/18 11:17:56;;;;;;;14.43;10.43;;;;;;;6.57;63.33;99541.97;5093583;28;20027;-63
2023/01/18 11:20:49;;;;;;;14.98;10.52;;;;;;;7.11;64.72;99543.56;5099102;28;20402;-64
2023/01/18 11:23:30;;;;;;;16.77;9.88;;;;;;;6.95;62.64;99533.22;5111404;28;20088;-64
2023/01/18 11:26:07;;;;;;;11.52;9.60;;;;;;;7.24;61.52;99537.31;5114437;28;20028;-64
2023/01/18 11:29:01;;;;;;;12.93;10.13;;;;;;;7.63;62.01;99540.72;5115544;28;20020;-63
2023/01/18 11:31:44;;;;;;;13.18;9.02;;;;;;;7.39;60.17;99537.19;5092250;28;20062;-64
2023/01/18 11:34:30;;;;;;;14.48;10.23;;;;;;;7.68;61.07;99538.59;5093182;28;20020;-64
2023/01/18 11:36:57;;;;;;;12.48;9.45;;;;;;;7.71;58.38;99534.88;5087191;28;20039;-63
2023/01/18 11:39:29;;;;;;;18.52;10.30;;;;;;;7.91;58.68;99522.81;5114632;28;20134;-63
2023/01/18 11:42:12;;;;;;;10.77;8.85;;;;;;;7.87;58.50;99535.44;5111386;28;20024;-63
2023/01/18 11:45:05;;;;;;;10.15;8.90;;;;;;;7.84;60.29;99527.72;5106328;28;20474;-64
2023/01/18 11:48:18;;;;;;;11.60;8.73;;;;;;;7.86;60.60;99527.63;5115675;28;20027;-64
2023/01/18 11:50:52;;;;;;;10.25;8.80;;;;;;;7.71;57.49;99527.78;5083705;28;20039;-64
2023/01/18 11:53:36;;;;;;;13.32;9.20;;;;;;;7.81;57.31;99524.47;5096262;28;20106;-64
2023/01/18 11:56:34;;;;;;;11.43;9.23;;;;;;;8.02;58.25;99524.69;5094944;28;20116;-64
2023/01/18 11:59:02;;;;;;;12.75;8.32;;;;;;;8.04;57.26;99526.28;5094991;28;20036;-64
2023/01/18 12:02:01;;;;;;;12.65;8.63;;;;;;;8.15;58.63;99530.78;5095198;28;20095;-63